Captain Badr — 5IM905 — position and weather

sailwx.info

Track history (hours):
 
Tides and Currents Weather Stations Pressure Air Temp Water Temp Dewpoint Dewpoint Depression Visibility Wind Speed Wind Dir Waves Ship Positions

Captain Badr

Last reported at 2017-Oct-08 21:58 UTC. Time now 2017-Oct-19 19:59 UTC.
Position N 36°35' E 014°02'.
Warning: this ship's position is 10 days out of date.

Length 86 m; draft 5.2 m.

Type: Ship. MMSI: 677080500.

Date/timePositionNaut miles runAvg speedWind from/ knotsBaromVisibWave heightAir tempDewpointWater temp
2017-Oct-08 21:58N 36°35' E 014°02'4 8.1
2017-Oct-08 21:30N 36°34' E 014°07'4 8.2
2017-Oct-08 21:00N 36°33' E 014°12'12 8.1
2017-Oct-08 19:29N 36°30' E 014°26'4 8.2
2017-Oct-08 19:00N 36°29' E 014°31'4 8.2
2017-Oct-08 18:30N 36°27' E 014°36'4 8.2
2017-Oct-08 18:00N 36°26' E 014°41'  
2017-Oct-04 20:12N 40°45' E 028°58'2 9.7
2017-Oct-04 19:59N 40°45' E 029°01'5 9.5
2017-Oct-04 19:30N 40°45' E 029°07'5 9.3
2017-Oct-04 18:59N 40°45' E 029°13'4 9.2
2017-Oct-04 18:31N 40°44' E 029°19'3 6.5
2017-Oct-04 18:01N 40°44' E 029°23'5 9.0
2017-Oct-04 17:30N 40°45' E 029°29'2 0.1
2017-Oct-03 18:39N 40°45' E 029°32'3 9.2
2017-Oct-03 18:22N 40°44' E 029°28'3 9.3
2017-Oct-03 18:00N 40°44' E 029°24'3 6.8
2017-Oct-03 17:30N 40°43' E 029°19'5 9.3
2017-Oct-03 17:00N 40°43' E 029°13'5 9.5
2017-Oct-03 16:30N 40°43' E 029°07'5 9.5
2017-Oct-03 15:59N 40°43' E 029°00'292 7.3
2017-Oct-01 23:41N 37°36' E 024°11'  
2017-Sep-29 14:29N 36°33' E 014°03'1110.3
2017-Sep-29 13:26N 36°37' E 013°50'610.2
2017-Sep-29 12:49N 36°39' E 013°43'310.1
2017-Sep-29 12:30N 36°40' E 013°39'510.3
2017-Sep-29 12:00N 36°41' E 013°33'510.4
2017-Sep-29 11:30N 36°43' E 013°27'510.4
2017-Sep-29 11:00N 36°45' E 013°21'  
Track history (hours):
 
Tides and Currents Weather Stations Pressure Air Temp Water Temp Dewpoint Dewpoint Depression Visibility Wind Speed Wind Dir Waves Ship Positions

Captain Badr

Last reported at 2017-Oct-08 21:58 UTC. Time now 2017-Oct-19 19:59 UTC.
Position N 36°35' E 014°02'.
Warning: this ship's position is 10 days out of date.

Length 86 m; draft 5.2 m.

Type: Ship. MMSI: 677080500.

Date/timePositionNaut miles runAvg speedWind from/ knotsBaromVisibWave heightAir tempDewpointWater temp
2017-Oct-08 21:58N 36°35' E 014°02'4 8.1
2017-Oct-08 21:30N 36°34' E 014°07'4 8.2
2017-Oct-08 21:00N 36°33' E 014°12'12 8.1
2017-Oct-08 19:29N 36°30' E 014°26'4 8.2
2017-Oct-08 19:00N 36°29' E 014°31'4 8.2
2017-Oct-08 18:30N 36°27' E 014°36'4 8.2
2017-Oct-08 18:00N 36°26' E 014°41'  
2017-Oct-04 20:12N 40°45' E 028°58'2 9.7
2017-Oct-04 19:59N 40°45' E 029°01'5 9.5
2017-Oct-04 19:30N 40°45' E 029°07'5 9.3
2017-Oct-04 18:59N 40°45' E 029°13'4 9.2
2017-Oct-04 18:31N 40°44' E 029°19'3 6.5
2017-Oct-04 18:01N 40°44' E 029°23'5 9.0
2017-Oct-04 17:30N 40°45' E 029°29'2 0.1
2017-Oct-03 18:39N 40°45' E 029°32'3 9.2
2017-Oct-03 18:22N 40°44' E 029°28'3 9.3
2017-Oct-03 18:00N 40°44' E 029°24'3 6.8
2017-Oct-03 17:30N 40°43' E 029°19'5 9.3
2017-Oct-03 17:00N 40°43' E 029°13'5 9.5
2017-Oct-03 16:30N 40°43' E 029°07'5 9.5
2017-Oct-03 15:59N 40°43' E 029°00'292 7.3
2017-Oct-01 23:41N 37°36' E 024°11'  
2017-Sep-29 14:29N 36°33' E 014°03'1110.3
2017-Sep-29 13:26N 36°37' E 013°50'610.2
2017-Sep-29 12:49N 36°39' E 013°43'310.1
2017-Sep-29 12:30N 36°40' E 013°39'510.3
2017-Sep-29 12:00N 36°41' E 013°33'510.4
2017-Sep-29 11:30N 36°43' E 013°27'510.4
2017-Sep-29 11:00N 36°45' E 013°21'  

Dump ship's entire track history